sensor_id;sensor_type;location;lat;lon;timestamp;pressure;altitude;pressure_sealevel;temperature;humidity
64158;BME280;50449;51.528;5.076;2023-02-14T00:01:08;103353.59;;;7.47;68.50
64158;BME280;50449;51.528;5.076;2023-02-14T00:03:34;103351.03;;;7.46;68.69
64158;BME280;50449;51.528;5.076;2023-02-14T00:06:07;103349.38;;;7.45;68.53
64158;BME280;50449;51.528;5.076;2023-02-14T00:08:33;103358.44;;;7.44;68.77
64158;BME280;50449;51.528;5.076;2023-02-14T00:10:59;103351.38;;;7.43;68.68
64158;BME280;50449;51.528;5.076;2023-02-14T00:13:24;103355.06;;;7.42;68.16
64158;BME280;50449;51.528;5.076;2023-02-14T00:15:49;103351.69;;;7.40;68.50
64158;BME280;50449;51.528;5.076;2023-02-14T00:18:15;103348.31;;;7.37;68.40
64158;BME280;50449;51.528;5.076;2023-02-14T00:20:40;103349.31;;;7.36;68.30
64158;BME280;50449;51.528;5.076;2023-02-14T00:23:05;103344.09;;;7.35;68.61
64158;BME280;50449;51.528;5.076;2023-02-14T00:25:33;103348.63;;;7.34;68.35
64158;BME280;50449;51.528;5.076;2023-02-14T00:27:58;103344.25;;;7.33;68.59
64158;BME280;50449;51.528;5.076;2023-02-14T00:30:24;103346.25;;;7.31;68.47
64158;BME280;50449;51.528;5.076;2023-02-14T00:32:49;103346.25;;;7.31;68.31
64158;BME280;50449;51.528;5.076;2023-02-14T00:35:14;103340.19;;;7.29;68.63
64158;BME280;50449;51.528;5.076;2023-02-14T00:37:40;103338.50;;;7.28;68.29
64158;BME280;50449;51.528;5.076;2023-02-14T00:40:06;103335.97;;;7.27;68.54
64158;BME280;50449;51.528;5.076;2023-02-14T00:42:31;103333.44;;;7.25;68.60
64158;BME280;50449;51.528;5.076;2023-02-14T00:44:57;103342.50;;;7.24;68.55
64158;BME280;50449;51.528;5.076;2023-02-14T00:47:22;103332.91;;;7.22;68.29
64158;BME280;50449;51.528;5.076;2023-02-14T00:49:47;103331.22;;;7.21;68.46
64158;BME280;50449;51.528;5.076;2023-02-14T00:52:13;103329.53;;;7.20;68.60
64158;BME280;50449;51.528;5.076;2023-02-14T00:54:38;103329.53;;;7.20;68.67
64158;BME280;50449;51.528;5.076;2023-02-14T00:57:04;103326.97;;;7.18;68.62
64158;BME280;50449;51.528;5.076;2023-02-14T00:59:29;103324.47;;;7.17;68.59
64158;BME280;50449;51.528;5.076;2023-02-14T01:01:54;103331.69;;;7.16;68.47
64158;BME280;50449;51.528;5.076;2023-02-14T01:04:20;103328.31;;;7.14;68.44
64158;BME280;50449;51.528;5.076;2023-02-14T01:06:45;103321.22;;;7.13;68.40
64158;BME280;50449;51.528;5.076;2023-02-14T01:09:11;103331.16;;;7.12;68.40
64158;BME280;50449;51.528;5.076;2023-02-14T01:11:36;103326.78;;;7.11;68.19
64158;BME280;50449;51.528;5.076;2023-02-14T01:14:01;103325.25;;;7.09;68.34
64158;BME280;50449;51.528;5.076;2023-02-14T01:16:27;103323.53;;;7.08;68.49
64158;BME280;50449;51.528;5.076;2023-02-14T01:18:53;103321.88;;;7.07;68.39
64158;BME280;50449;51.528;5.076;2023-02-14T01:21:23;103323.72;;;7.06;68.42
64158;BME280;50449;51.528;5.076;2023-02-14T01:23:51;103323.16;;;7.03;68.35
64158;BME280;50449;51.528;5.076;2023-02-14T01:26:17;103318.81;;;7.02;68.18
64158;BME280;50449;51.528;5.076;2023-02-14T01:28:44;103327.88;;;7.01;68.52
64158;BME280;50449;51.528;5.076;2023-02-14T01:31:11;103324.50;;;6.99;68.39
64158;BME280;50449;51.528;5.076;2023-02-14T01:33:38;103326.34;;;6.98;68.30
64158;BME280;50449;51.528;5.076;2023-02-14T01:36:27;103331.03;;;6.96;68.21
64158;BME280;50449;51.528;5.076;2023-02-14T01:38:55;103321.25;;;6.95;68.36
64158;BME280;50449;51.528;5.076;2023-02-14T01:41:21;103334.88;;;6.93;68.43
64158;BME280;50449;51.528;5.076;2023-02-14T01:44:06;103330.47;;;6.92;68.23
64158;BME280;50449;51.528;5.076;2023-02-14T01:46:36;103332.50;;;6.90;68.23
64158;BME280;50449;51.528;5.076;2023-02-14T01:49:16;103329.97;;;6.89;68.22
64158;BME280;50449;51.528;5.076;2023-02-14T01:51:47;103335.47;;;6.87;68.13
64158;BME280;50449;51.528;5.076;2023-02-14T01:54:16;103337.47;;;6.85;68.45
64158;BME280;50449;51.528;5.076;2023-02-14T01:56:45;103335.78;;;6.84;68.21
64158;BME280;50449;51.528;5.076;2023-02-14T01:59:13;103337.63;;;6.84;68.15
64158;BME280;50449;51.528;5.076;2023-02-14T02:01:40;103335.09;;;6.82;68.09
64158;BME280;50449;51.528;5.076;2023-02-14T02:04:12;103333.41;;;6.81;68.16
64158;BME280;50449;51.528;5.076;2023-02-14T02:06:42;103336.25;;;6.80;68.11
64158;BME280;50449;51.528;5.076;2023-02-14T02:11:43;103323.97;;;6.77;68.05
64158;BME280;50449;51.528;5.076;2023-02-14T02:14:17;103327.81;;;6.75;68.16
64158;BME280;50449;51.528;5.076;2023-02-14T02:16:53;103319.91;;;6.73;68.08
64158;BME280;50449;51.528;5.076;2023-02-14T02:19:59;103317.38;;;6.71;68.27
64158;BME280;50449;51.528;5.076;2023-02-14T02:25:40;103311.47;;;6.68;68.33
64158;BME280;50449;51.528;5.076;2023-02-14T02:39:39;103311.22;;;6.61;68.04
64158;BME280;50449;51.528;5.076;2023-02-14T02:42:45;103304.47;;;6.57;68.00
64158;BME280;50449;51.528;5.076;2023-02-14T02:48:05;103301.13;;;6.55;68.19
64158;BME280;50449;51.528;5.076;2023-02-14T02:50:43;103299.41;;;6.54;68.15
64158;BME280;50449;51.528;5.076;2023-02-14T02:56:13;103292.66;;;6.50;67.97
64158;BME280;50449;51.528;5.076;2023-02-14T02:59:18;103295.50;;;6.48;68.10
64158;BME280;50449;51.528;5.076;2023-02-14T03:01:53;103299.16;;;6.47;67.80
64158;BME280;50449;51.528;5.076;2023-02-14T03:04:21;103301.19;;;6.45;67.92
64158;BME280;50449;51.528;5.076;2023-02-14T03:07:06;103299.47;;;6.44;67.98
64158;BME280;50449;51.528;5.076;2023-02-14T03:09:52;103295.13;;;6.43;67.92
64158;BME280;50449;51.528;5.076;2023-02-14T03:15:20;103300.81;;;6.40;68.04
64158;BME280;50449;51.528;5.076;2023-02-14T03:20:20;103299.25;;;6.38;67.89
64158;BME280;50449;51.528;5.076;2023-02-14T03:28:18;103298.72;;;6.34;67.92
64158;BME280;50449;51.528;5.076;2023-02-14T03:36:05;103305.41;;;6.30;67.91
64158;BME280;50449;51.528;5.076;2023-02-14T03:38:39;103301.00;;;6.29;67.75
64158;BME280;50449;51.528;5.076;2023-02-14T03:41:12;103299.31;;;6.28;68.10
64158;BME280;50449;51.528;5.076;2023-02-14T03:43:46;103313.72;;;6.27;68.09
64158;BME280;50449;51.528;5.076;2023-02-14T03:46:24;103306.53;;;6.27;68.05
64158;BME280;50449;51.528;5.076;2023-02-14T03:48:53;103310.38;;;6.25;67.80
64158;BME280;50449;51.528;5.076;2023-02-14T03:51:21;103307.81;;;6.23;67.91
64158;BME280;50449;51.528;5.076;2023-02-14T03:53:51;103302.59;;;6.22;67.96
64158;BME280;50449;51.528;5.076;2023-02-14T03:56:47;103301.75;;;6.21;67.88
64158;BME280;50449;51.528;5.076;2023-02-14T03:59:16;103302.06;;;6.18;67.63
64158;BME280;50449;51.528;5.076;2023-02-14T04:01:49;103304.75;;;6.18;67.66
64158;BME280;50449;51.528;5.076;2023-02-14T04:04:20;103300.53;;;6.16;67.56
64158;BME280;50449;51.528;5.076;2023-02-14T04:06:46;103301.50;;;6.15;67.70
64158;BME280;50449;51.528;5.076;2023-02-14T04:09:11;103302.50;;;6.14;67.94
64158;BME280;50449;51.528;5.076;2023-02-14T04:11:37;103304.50;;;6.12;67.91
64158;BME280;50449;51.528;5.076;2023-02-14T04:14:03;103297.59;;;6.09;68.10
64158;BME280;50449;51.528;5.076;2023-02-14T04:16:28;103314.53;;;6.10;67.71
64158;BME280;50449;51.528;5.076;2023-02-14T04:18:54;103301.28;;;6.08;67.69
64158;BME280;50449;51.528;5.076;2023-02-14T04:21:38;103305.94;;;6.06;67.77
64158;BME280;50449;51.528;5.076;2023-02-14T04:24:04;103301.59;;;6.05;67.73
64158;BME280;50449;51.528;5.076;2023-02-14T04:26:29;103299.88;;;6.04;67.74
64158;BME280;50449;51.528;5.076;2023-02-14T04:28:54;103300.88;;;6.03;67.81
64158;BME280;50449;51.528;5.076;2023-02-14T04:31:20;103304.53;;;6.02;67.73
64158;BME280;50449;51.528;5.076;2023-02-14T04:33:45;103303.72;;;6.01;67.90
64158;BME280;50449;51.528;5.076;2023-02-14T04:36:12;103302.03;;;6.00;67.76
64158;BME280;50449;51.528;5.076;2023-02-14T04:38:38;103306.56;;;6.00;67.86
64158;BME280;50449;51.528;5.076;2023-02-14T04:41:04;103307.53;;;5.99;67.78
64158;BME280;50449;51.528;5.076;2023-02-14T04:43:29;103301.47;;;5.97;67.97
64158;BME280;50449;51.528;5.076;2023-02-14T04:45:54;103302.47;;;5.96;67.57
64158;BME280;50449;51.528;5.076;2023-02-14T04:48:20;103298.97;;;5.95;67.73
64158;BME280;50449;51.528;5.076;2023-02-14T04:50:53;103295.44;;;5.95;67.56
64158;BME280;50449;51.528;5.076;2023-02-14T04:53:19;103295.53;;;5.93;67.79
64158;BME280;50449;51.528;5.076;2023-02-14T04:55:47;103293.88;;;5.92;67.82
64158;BME280;50449;51.528;5.076;2023-02-14T04:58:12;103295.84;;;5.90;67.87
64158;BME280;50449;51.528;5.076;2023-02-14T05:00:38;103294.13;;;5.89;67.71
64158;BME280;50449;51.528;5.076;2023-02-14T05:03:03;103287.94;;;5.89;67.81
64158;BME280;50449;51.528;5.076;2023-02-14T05:05:28;103294.31;;;5.88;67.46
64158;BME280;50449;51.528;5.076;2023-02-14T05:07:54;103289.91;;;5.86;67.43
64158;BME280;50449;51.528;5.076;2023-02-14T05:10:19;103290.09;;;5.85;67.48
64158;BME280;50449;51.528;5.076;2023-02-14T05:12:45;103291.91;;;5.84;67.66
64158;BME280;50449;51.528;5.076;2023-02-14T05:15:10;103288.53;;;5.82;67.64
64158;BME280;50449;51.528;5.076;2023-02-14T05:17:35;103289.50;;;5.81;67.68
64158;BME280;50449;51.528;5.076;2023-02-14T05:20:03;103291.34;;;5.81;67.54
64158;BME280;50449;51.528;5.076;2023-02-14T05:22:28;103285.28;;;5.79;67.58
64158;BME280;50449;51.528;5.076;2023-02-14T05:24:53;103281.78;;;5.78;67.68
64158;BME280;50449;51.528;5.076;2023-02-14T05:27:19;103280.09;;;5.77;67.72
64158;BME280;50449;51.528;5.076;2023-02-14T05:29:44;103279.22;;;5.77;67.73
64158;BME280;50449;51.528;5.076;2023-02-14T05:32:09;103276.72;;;5.75;67.57
64158;BME280;50449;51.528;5.076;2023-02-14T05:34:35;103280.38;;;5.74;67.82
64158;BME280;50449;51.528;5.076;2023-02-14T05:37:00;103284.06;;;5.73;67.66
64158;BME280;50449;51.528;5.076;2023-02-14T05:39:27;103283.34;;;5.71;67.49
64158;BME280;50449;51.528;5.076;2023-02-14T05:41:52;103279.84;;;5.71;67.62
64158;BME280;50449;51.528;5.076;2023-02-14T05:44:18;103289.72;;;5.70;67.46
64158;BME280;50449;51.528;5.076;2023-02-14T05:46:43;103285.34;;;5.69;67.56
64158;BME280;50449;51.528;5.076;2023-02-14T05:49:08;103284.66;;;5.67;67.84
64158;BME280;50449;51.528;5.076;2023-02-14T05:51:34;103278.44;;;5.67;67.60
64158;BME280;50449;51.528;5.076;2023-02-14T05:53:59;103274.06;;;5.66;67.63
64158;BME280;50449;51.528;5.076;2023-02-14T05:56:25;103284.94;;;5.64;67.51
64158;BME280;50449;51.528;5.076;2023-02-14T05:58:51;103278.72;;;5.63;67.51
64158;BME280;50449;51.528;5.076;2023-02-14T06:01:16;103290.47;;;5.62;67.76
64158;BME280;50449;51.528;5.076;2023-02-14T06:03:41;103285.22;;;5.61;67.65
64158;BME280;50449;51.528;5.076;2023-02-14T06:06:07;103288.91;;;5.60;67.46
64158;BME280;50449;51.528;5.076;2023-02-14T06:08:32;103289.91;;;5.59;67.68
64158;BME280;50449;51.528;5.076;2023-02-14T06:10:57;103286.38;;;5.58;67.75
64158;BME280;50449;51.528;5.076;2023-02-14T06:13:23;103284.69;;;5.57;67.52
64158;BME280;50449;51.528;5.076;2023-02-14T06:15:49;103286.66;;;5.55;67.56
64158;BME280;50449;51.528;5.076;2023-02-14T06:18:14;103291.19;;;5.55;67.71
64158;BME280;50449;51.528;5.076;2023-02-14T06:20:40;103288.66;;;5.53;67.62
64158;BME280;50449;51.528;5.076;2023-02-14T06:23:05;103287.81;;;5.53;67.77
64158;BME280;50449;51.528;5.076;2023-02-14T06:25:30;103286.97;;;5.52;67.54
64158;BME280;50449;51.528;5.076;2023-02-14T06:27:57;103289.78;;;5.51;67.51
64158;BME280;50449;51.528;5.076;2023-02-14T06:30:22;103288.13;;;5.50;67.69
64158;BME280;50449;51.528;5.076;2023-02-14T06:32:48;103293.59;;;5.48;67.33
64158;BME280;50449;51.528;5.076;2023-02-14T06:35:13;103296.28;;;5.48;67.69
64158;BME280;50449;51.528;5.076;2023-02-14T06:37:39;103299.97;;;5.47;67.62
64158;BME280;50449;51.528;5.076;2023-02-14T06:40:07;103302.78;;;5.46;67.52
64158;BME280;50449;51.528;5.076;2023-02-14T06:42:32;103301.09;;;5.45;67.58
64158;BME280;50449;51.528;5.076;2023-02-14T06:44:58;103294.88;;;5.44;67.45
64158;BME280;50449;51.528;5.076;2023-02-14T06:47:23;103294.22;;;5.42;67.68
64158;BME280;50449;51.528;5.076;2023-02-14T06:49:48;103300.41;;;5.42;67.67
64158;BME280;50449;51.528;5.076;2023-02-14T06:52:14;103295.19;;;5.41;67.30
64158;BME280;50449;51.528;5.076;2023-02-14T06:54:39;103292.66;;;5.39;67.67
64158;BME280;50449;51.528;5.076;2023-02-14T06:57:05;103297.16;;;5.39;67.38
64158;BME280;50449;51.528;5.076;2023-02-14T06:59:30;103293.78;;;5.37;67.43
64158;BME280;50449;51.528;5.076;2023-02-14T07:01:55;103293.78;;;5.37;67.36
64158;BME280;50449;51.528;5.076;2023-02-14T07:04:21;103299.28;;;5.35;67.68
64158;BME280;50449;51.528;5.076;2023-02-14T07:06:46;103297.63;;;5.34;67.23
64158;BME280;50449;51.528;5.076;2023-02-14T07:09:11;103301.44;;;5.32;67.39
64158;BME280;50449;51.528;5.076;2023-02-14T07:11:41;103294.34;;;5.31;67.47
64158;BME280;50449;51.528;5.076;2023-02-14T07:14:06;103290.84;;;5.30;67.29
64158;BME280;50449;51.528;5.076;2023-02-14T07:16:31;103290.00;;;5.30;67.65
64158;BME280;50449;51.528;5.076;2023-02-14T07:18:57;103296.50;;;5.27;67.43
64158;BME280;50449;51.528;5.076;2023-02-14T07:21:22;103299.19;;;5.27;67.47
64158;BME280;50449;51.528;5.076;2023-02-14T07:23:48;103307.22;;;5.27;67.68
64158;BME280;50449;51.528;5.076;2023-02-14T07:26:14;103298.47;;;5.25;67.42
64158;BME280;50449;51.528;5.076;2023-02-14T07:28:43;103296.78;;;5.24;67.33
64158;BME280;50449;51.528;5.076;2023-02-14T07:31:09;103295.94;;;5.24;67.49
64158;BME280;50449;51.528;5.076;2023-02-14T07:33:35;103297.06;;;5.21;67.35
64158;BME280;50449;51.528;5.076;2023-02-14T07:36:03;103300.75;;;5.20;67.21
64158;BME280;50449;51.528;5.076;2023-02-14T07:38:29;103295.50;;;5.18;67.29
64158;BME280;50449;51.528;5.076;2023-02-14T07:40:55;103300.88;;;5.18;67.58
64158;BME280;50449;51.528;5.076;2023-02-14T07:43:20;103301.03;;;5.17;67.18
64158;BME280;50449;51.528;5.076;2023-02-14T07:45:45;103292.13;;;5.16;67.58
64158;BME280;50449;51.528;5.076;2023-02-14T07:48:11;103291.28;;;5.16;67.57
64158;BME280;50449;51.528;5.076;2023-02-14T07:50:36;103299.50;;;5.14;67.35
64158;BME280;50449;51.528;5.076;2023-02-14T07:53:02;103297.78;;;5.13;67.33
64158;BME280;50449;51.528;5.076;2023-02-14T07:55:27;103294.25;;;5.13;67.33
64158;BME280;50449;51.528;5.076;2023-02-14T07:57:52;103298.78;;;5.12;67.40
64158;BME280;50449;51.528;5.076;2023-02-14T08:00:18;103297.06;;;5.11;67.31
64158;BME280;50449;51.528;5.076;2023-02-14T08:02:44;103303.44;;;5.10;67.67
64158;BME280;50449;51.528;5.076;2023-02-14T08:05:09;103301.75;;;5.09;67.47
64158;BME280;50449;51.528;5.076;2023-02-14T08:07:35;103305.28;;;5.10;67.52
64158;BME280;50449;51.528;5.076;2023-02-14T08:10:00;103297.38;;;5.08;67.51
64158;BME280;50449;51.528;5.076;2023-02-14T08:12:25;103296.53;;;5.08;67.41
64158;BME280;50449;51.528;5.076;2023-02-14T08:15:09;103301.03;;;5.07;67.32
64158;BME280;50449;51.528;5.076;2023-02-14T08:17:55;103307.38;;;5.06;67.45
64158;BME280;50449;51.528;5.076;2023-02-14T08:20:20;103302.19;;;5.05;67.46
64158;BME280;50449;51.528;5.076;2023-02-14T08:22:46;103300.34;;;5.05;67.37
64158;BME280;50449;51.528;5.076;2023-02-14T08:25:11;103304.03;;;5.04;67.86
64158;BME280;50449;51.528;5.076;2023-02-14T08:27:37;103307.66;;;5.03;67.70
64158;BME280;50449;51.528;5.076;2023-02-14T08:30:02;103306.81;;;5.03;67.67
64158;BME280;50449;51.528;5.076;2023-02-14T08:32:28;103304.16;;;5.03;67.78
64158;BME280;50449;51.528;5.076;2023-02-14T08:34:53;103298.78;;;5.03;67.85
64158;BME280;50449;51.528;5.076;2023-02-14T08:37:18;103301.47;;;5.03;67.57
64158;BME280;50449;51.528;5.076;2023-02-14T08:39:44;103303.31;;;5.02;67.58
64158;BME280;50449;51.528;5.076;2023-02-14T08:42:09;103304.16;;;5.03;67.35
64158;BME280;50449;51.528;5.076;2023-02-14T08:44:36;103300.63;;;5.02;67.83
64158;BME280;50449;51.528;5.076;2023-02-14T08:47:01;103293.56;;;5.01;67.51
64158;BME280;50449;51.528;5.076;2023-02-14T08:49:26;103292.72;;;5.01;67.64
64158;BME280;50449;51.528;5.076;2023-02-14T08:51:52;103297.13;;;5.02;67.64
64158;BME280;50449;51.528;5.076;2023-02-14T08:54:19;103288.22;;;5.01;67.92
64158;BME280;50449;51.528;5.076;2023-02-14T08:56:44;103291.88;;;5.00;67.71
64158;BME280;50449;51.528;5.076;2023-02-14T08:59:10;103297.25;;;5.00;67.63
64158;BME280;50449;51.528;5.076;2023-02-14T09:01:35;103290.22;;;4.99;67.74
64158;BME280;50449;51.528;5.076;2023-02-14T09:04:01;103290.22;;;4.99;67.65
64158;BME280;50449;51.528;5.076;2023-02-14T09:06:28;103294.69;;;4.98;67.77
64158;BME280;50449;51.528;5.076;2023-02-14T09:08:53;103285.81;;;4.98;67.61
64158;BME280;50449;51.528;5.076;2023-02-14T09:11:22;103282.31;;;4.97;67.75
64158;BME280;50449;51.528;5.076;2023-02-14T09:13:49;103281.59;;;4.95;67.38
64158;BME280;50449;51.528;5.076;2023-02-14T09:16:16;103302.19;;;4.95;67.74
64158;BME280;50449;51.528;5.076;2023-02-14T09:18:42;103298.66;;;4.94;67.72
64158;BME280;50449;51.528;5.076;2023-02-14T09:21:15;103291.59;;;4.93;67.72
64158;BME280;50449;51.528;5.076;2023-02-14T09:23:41;103285.41;;;4.93;67.75
64158;BME280;50449;51.528;5.076;2023-02-14T09:26:09;103288.94;;;4.93;67.71
64158;BME280;50449;51.528;5.076;2023-02-14T09:28:35;103283.56;;;4.93;67.87
64158;BME280;50449;51.528;5.076;2023-02-14T09:31:16;103280.88;;;4.93;68.08
64158;BME280;50449;51.528;5.076;2023-02-14T09:33:42;103283.56;;;4.93;68.25
64158;BME280;50449;51.528;5.076;2023-02-14T09:36:27;103274.69;;;4.93;68.21
64158;BME280;50449;51.528;5.076;2023-02-14T09:38:52;103275.53;;;4.93;68.52
64158;BME280;50449;51.528;5.076;2023-02-14T09:44:05;103276.41;;;4.94;69.11
64158;BME280;50449;51.528;5.076;2023-02-14T09:46:39;103283.44;;;4.95;68.60
64158;BME280;50449;51.528;5.076;2023-02-14T09:49:11;103278.91;;;4.95;69.19
64158;BME280;50449;51.528;5.076;2023-02-14T09:51:38;103274.41;;;4.96;69.43
64158;BME280;50449;51.528;5.076;2023-02-14T09:54:13;103269.91;;;4.96;69.60
64158;BME280;50449;51.528;5.076;2023-02-14T09:59:31;103275.09;;;4.98;69.83
64158;BME280;50449;51.528;5.076;2023-02-14T10:02:33;103266.22;;;4.97;69.91
64158;BME280;50449;51.528;5.076;2023-02-14T10:07:45;103258.06;;;4.99;70.38
64158;BME280;50449;51.528;5.076;2023-02-14T10:10:25;103255.38;;;4.99;70.09
64158;BME280;50449;51.528;5.076;2023-02-14T10:15:27;103258.75;;;5.01;70.59
64158;BME280;50449;51.528;5.076;2023-02-14T10:20:40;103258.59;;;5.03;70.65
64158;BME280;50449;51.528;5.076;2023-02-14T10:23:38;103258.47;;;5.04;71.33
64158;BME280;50449;51.528;5.076;2023-02-14T10:26:16;103261.16;;;5.04;71.18
64158;BME280;50449;51.528;5.076;2023-02-14T10:28:45;103257.47;;;5.05;71.49
64158;BME280;50449;51.528;5.076;2023-02-14T10:31:26;103252.13;;;5.05;71.75
64158;BME280;50449;51.528;5.076;2023-02-14T10:37:29;103250.16;;;5.07;72.33
64158;BME280;50449;51.528;5.076;2023-02-14T10:45:49;103245.50;;;5.09;72.42
64158;BME280;50449;51.528;5.076;2023-02-14T10:48:28;103247.16;;;5.10;72.22
64158;BME280;50449;51.528;5.076;2023-02-14T10:51:22;103238.13;;;5.11;72.45
64158;BME280;50449;51.528;5.076;2023-02-14T10:56:35;103231.63;;;5.14;72.50
64158;BME280;50449;51.528;5.076;2023-02-14T10:59:14;103228.97;;;5.14;72.77
64158;BME280;50449;51.528;5.076;2023-02-14T11:01:43;103225.31;;;5.15;73.18
64158;BME280;50449;51.528;5.076;2023-02-14T11:04:10;103229.53;;;5.17;72.96
64158;BME280;50449;51.528;5.076;2023-02-14T11:06:38;103227.56;;;5.19;73.33
64158;BME280;50449;51.528;5.076;2023-02-14T11:09:03;103223.88;;;5.20;73.30
64158;BME280;50449;51.528;5.076;2023-02-14T11:11:34;103224.56;;;5.23;73.47
64158;BME280;50449;51.528;5.076;2023-02-14T11:16:49;103227.78;;;5.26;73.62
64158;BME280;50449;51.528;5.076;2023-02-14T11:19:31;103214.41;;;5.26;73.92
64158;BME280;50449;51.528;5.076;2023-02-14T11:21:58;103218.63;;;5.29;73.79
64158;BME280;50449;51.528;5.076;2023-02-14T11:24:27;103216.63;;;5.31;74.19
64158;BME280;50449;51.528;5.076;2023-02-14T11:27:03;103210.31;;;5.32;74.08
64158;BME280;50449;51.528;5.076;2023-02-14T11:29:32;103211.84;;;5.34;74.41
64158;BME280;50449;51.528;5.076;2023-02-14T11:32:12;103213.38;;;5.37;74.29
64158;BME280;50449;51.528;5.076;2023-02-14T11:35:04;103209.69;;;5.38;74.28
64158;BME280;50449;51.528;5.076;2023-02-14T11:37:52;103206.03;;;5.39;74.44
64158;BME280;50449;51.528;5.076;2023-02-14T11:42:52;103193.31;;;5.41;74.64
64158;BME280;50449;51.528;5.076;2023-02-14T11:45:28;103189.66;;;5.42;74.67
64158;BME280;50449;51.528;5.076;2023-02-14T11:50:39;103185.84;;;5.45;74.65
64158;BME280;50449;51.528;5.076;2023-02-14T11:53:09;103191.88;;;5.47;74.74
64158;BME280;50449;51.528;5.076;2023-02-14T11:55:37;103177.50;;;5.48;75.03
64158;BME280;50449;51.528;5.076;2023-02-14T11:58:04;103173.69;;;5.50;74.91
64158;BME280;50449;51.528;5.076;2023-02-14T12:00:31;103172.66;;;5.51;74.87
64158;BME280;50449;51.528;5.076;2023-02-14T12:02:58;103166.16;;;5.54;75.02
64158;BME280;50449;51.528;5.076;2023-02-14T12:05:36;103164.19;;;5.56;75.16
64158;BME280;50449;51.528;5.076;2023-02-14T12:08:09;103151.47;;;5.58;75.14
64158;BME280;50449;51.528;5.076;2023-02-14T12:10:37;103152.19;;;5.60;75.05
64158;BME280;50449;51.528;5.076;2023-02-14T12:15:39;103158.91;;;5.64;75.39
64158;BME280;50449;51.528;5.076;2023-02-14T12:21:35;103146.75;;;5.70;75.35
64158;BME280;50449;51.528;5.076;2023-02-14T12:26:48;103138.41;;;5.73;75.64
64158;BME280;50449;51.528;5.076;2023-02-14T12:31:50;103128.06;;;5.78;75.34
64158;BME280;50449;51.528;5.076;2023-02-14T12:34:17;103121.69;;;5.79;75.26
64158;BME280;50449;51.528;5.076;2023-02-14T12:37:30;103113.34;;;5.82;75.41
64158;BME280;50449;51.528;5.076;2023-02-14T12:40:52;103113.19;;;5.83;75.63
64158;BME280;50449;51.528;5.076;2023-02-14T12:53:34;103088.97;;;5.93;75.61
64158;BME280;50449;51.528;5.076;2023-02-14T13:02:47;103088.22;;;6.01;75.87
64158;BME280;50449;51.528;5.076;2023-02-14T13:04:53;103084.41;;;6.03;75.82
64158;BME280;50449;51.528;5.076;2023-02-14T13:13:09;103071.22;;;6.10;75.66
64158;BME280;50449;51.528;5.076;2023-02-14T13:20:56;103066.88;;;6.35;75.24
64158;BME280;50449;51.528;5.076;2023-02-14T13:23:29;103065.53;;;6.39;74.77
64158;BME280;50449;51.528;5.076;2023-02-14T13:26:17;103053.50;;;6.43;74.65
64158;BME280;50449;51.528;5.076;2023-02-14T13:28:51;103055.00;;;6.46;74.84
64158;BME280;50449;51.528;5.076;2023-02-14T13:31:19;103052.16;;;6.47;74.51
64158;BME280;50449;51.528;5.076;2023-02-14T13:33:59;103057.22;;;6.50;74.76
64158;BME280;50449;51.528;5.076;2023-02-14T13:36:27;103052.50;;;6.53;74.41
64158;BME280;50449;51.528;5.076;2023-02-14T13:38:55;103048.69;;;6.55;74.23
64158;BME280;50449;51.528;5.076;2023-02-14T13:41:22;103049.34;;;6.57;74.52
64158;BME280;50449;51.528;5.076;2023-02-14T13:43:57;103041.16;;;6.59;74.16
64158;BME280;50449;51.528;5.076;2023-02-14T13:49:01;103039.84;;;6.63;74.45
64158;BME280;50449;51.528;5.076;2023-02-14T13:51:48;103037.81;;;6.65;74.24
64158;BME280;50449;51.528;5.076;2023-02-14T13:56:59;103037.53;;;6.68;74.14
64158;BME280;50449;51.528;5.076;2023-02-14T13:59:31;103038.19;;;6.70;73.84
64158;BME280;50449;51.528;5.076;2023-02-14T14:04:50;103029.81;;;6.73;73.98
64158;BME280;50449;51.528;5.076;2023-02-14T14:17:48;103020.78;;;6.82;73.74
64158;BME280;50449;51.528;5.076;2023-02-14T14:25:12;103009.69;;;6.85;73.54
64158;BME280;50449;51.528;5.076;2023-02-14T14:27:43;103005.00;;;6.87;73.27
64158;BME280;50449;51.528;5.076;2023-02-14T14:30:18;103003.84;;;6.90;73.24
64158;BME280;50449;51.528;5.076;2023-02-14T14:32:44;103001.84;;;6.92;72.92
64158;BME280;50449;51.528;5.076;2023-02-14T14:35:18;102999.00;;;6.93;72.96
64158;BME280;50449;51.528;5.076;2023-02-14T14:37:52;102998.00;;;6.94;73.11
64158;BME280;50449;51.528;5.076;2023-02-14T14:40:24;102999.69;;;6.96;72.68
64158;BME280;50449;51.528;5.076;2023-02-14T14:42:51;102996.81;;;6.97;72.74
64158;BME280;50449;51.528;5.076;2023-02-14T14:45:25;103001.88;;;7.00;72.31
64158;BME280;50449;51.528;5.076;2023-02-14T14:47:57;102998.19;;;7.01;72.36
64158;BME280;50449;51.528;5.076;2023-02-14T14:50:27;102998.00;;;7.03;72.01
64158;BME280;50449;51.528;5.076;2023-02-14T14:52:56;102997.84;;;7.04;71.90
64158;BME280;50449;51.528;5.076;2023-02-14T14:55:28;102998.53;;;7.06;71.78
64158;BME280;50449;51.528;5.076;2023-02-14T14:58:00;102990.28;;;7.08;71.78
64158;BME280;50449;51.528;5.076;2023-02-14T15:00:36;102996.34;;;7.10;71.74
64158;BME280;50449;51.528;5.076;2023-02-14T15:05:37;102998.69;;;7.13;71.50
64158;BME280;50449;51.528;5.076;2023-02-14T15:08:19;102993.19;;;7.14;71.54
64158;BME280;50449;51.528;5.076;2023-02-14T15:13:39;102990.97;;;7.18;71.32
64158;BME280;50449;51.528;5.076;2023-02-14T15:16:32;102995.22;;;7.21;71.32
64158;BME280;50449;51.528;5.076;2023-02-14T15:19:08;102991.66;;;7.20;71.21
64158;BME280;50449;51.528;5.076;2023-02-14T15:21:34;102988.00;;;7.21;70.96
64158;BME280;50449;51.528;5.076;2023-02-14T15:24:01;102986.81;;;7.24;70.99
64158;BME280;50449;51.528;5.076;2023-02-14T15:26:29;102988.50;;;7.25;71.00
64158;BME280;50449;51.528;5.076;2023-02-14T15:28:58;102983.78;;;7.27;71.05
64158;BME280;50449;51.528;5.076;2023-02-14T15:31:28;102982.63;;;7.29;70.89
64158;BME280;50449;51.528;5.076;2023-02-14T15:33:55;102984.28;;;7.30;70.73